createdAt,value
2023-04-01T00:01:59.953Z,1.38
2023-04-01T00:04:28.017Z,1.40
2023-04-01T00:06:57.815Z,1.15
2023-04-01T00:09:26.026Z,1.58
2023-04-01T00:11:58.116Z,1.67
2023-04-01T00:14:26.361Z,1.17
2023-04-01T00:16:54.541Z,1.35
2023-04-01T00:19:23.944Z,1.40
2023-04-01T00:21:53.277Z,1.02
2023-04-01T00:24:21.383Z,1.08
2023-04-01T00:26:50.933Z,1.25
2023-04-01T00:29:18.958Z,1.30
2023-04-01T00:31:47.069Z,1.17
2023-04-01T00:34:15.129Z,1.98
2023-04-01T00:36:44.527Z,1.58
2023-04-01T00:39:12.688Z,1.25
2023-04-01T00:41:41.352Z,1.27
2023-04-01T00:44:20.299Z,1.35
2023-04-01T00:46:48.915Z,1.95
2023-04-01T00:49:21.080Z,1.90
2023-04-01T00:51:52.429Z,1.60
2023-04-01T00:54:21.915Z,1.65
2023-04-01T00:56:52.483Z,1.35
2023-04-01T00:59:22.910Z,1.20
2023-04-01T01:01:51.485Z,1.58
2023-04-01T01:04:25.643Z,1.50
2023-04-01T01:07:00.505Z,1.38
2023-04-01T01:09:32.971Z,1.27
2023-04-01T01:12:05.240Z,1.50
2023-04-01T01:14:39.026Z,1.27
2023-04-01T01:17:10.748Z,1.40
2023-04-01T01:19:51.395Z,1.40
2023-04-01T01:22:24.529Z,1.38
2023-04-01T01:24:58.886Z,1.63
2023-04-01T01:27:28.711Z,1.67
2023-04-01T01:30:04.124Z,1.17
2023-04-01T01:32:55.602Z,1.35
2023-04-01T01:35:29.652Z,1.00
2023-04-01T01:37:59.162Z,1.27
2023-04-01T01:40:28.627Z,1.08
2023-04-01T01:43:05.010Z,1.25
2023-04-01T01:45:34.273Z,1.33
2023-04-01T01:48:02.948Z,1.50
2023-04-01T01:50:32.993Z,1.20
2023-04-01T01:53:07.186Z,1.48
2023-04-01T01:55:36.292Z,1.35
2023-04-01T01:58:08.228Z,1.20
2023-04-01T02:00:36.841Z,1.40
2023-04-01T02:03:06.180Z,1.95
2023-04-01T02:05:36.074Z,1.33
2023-04-01T02:08:12.921Z,1.33
2023-04-01T02:10:43.484Z,1.27
2023-04-01T02:13:16.849Z,1.65
2023-04-01T02:15:47.167Z,1.65
2023-04-01T02:18:17.470Z,1.60
2023-04-01T02:20:49.855Z,1.40
2023-04-01T02:23:19.425Z,1.48
2023-04-01T02:25:47.720Z,1.40
2023-04-01T02:28:17.655Z,1.38
2023-04-01T02:30:48.244Z,1.55
2023-04-01T02:33:16.470Z,1.10
2023-04-01T02:35:44.532Z,1.15
2023-04-01T02:38:14.042Z,1.45
2023-04-01T02:40:47.612Z,1.50
2023-04-01T02:43:15.809Z,1.00
2023-04-01T02:45:43.892Z,1.15
2023-04-01T02:48:13.967Z,1.60
2023-04-01T02:50:42.111Z,1.58
2023-04-01T02:53:10.441Z,1.50
2023-04-01T02:55:42.786Z,1.20
2023-04-01T02:58:11.194Z,1.27
2023-04-01T03:00:39.520Z,1.40
2023-04-01T03:03:07.423Z,1.38
2023-04-01T03:08:03.381Z,1.75
2023-04-01T03:10:34.807Z,1.92
2023-04-01T03:13:04.038Z,1.40
2023-04-01T03:15:31.677Z,1.63
2023-04-01T03:20:26.920Z,0.88
2023-04-01T03:22:54.463Z,0.98
2023-04-01T03:25:22.084Z,1.05
2023-04-01T03:27:51.828Z,1.45
2023-04-01T03:30:20.991Z,1.42
2023-04-01T03:32:54.950Z,0.95
2023-04-01T03:35:22.498Z,1.25
2023-04-01T03:37:50.243Z,1.45
2023-04-01T03:40:17.872Z,0.90
2023-04-01T03:42:45.579Z,1.73
2023-04-01T03:45:13.763Z,1.08
2023-04-01T03:47:42.731Z,0.90
2023-04-01T03:50:10.934Z,0.65
2023-04-01T03:52:38.553Z,0.80
2023-04-01T03:55:06.980Z,0.90
2023-04-01T03:57:34.704Z,0.80
2023-04-01T04:00:13.351Z,0.70
2023-04-01T04:02:46.874Z,0.93
2023-04-01T04:05:22.462Z,1.10
2023-04-01T04:07:51.948Z,0.90
2023-04-01T04:10:19.615Z,0.70
2023-04-01T04:12:47.202Z,0.85
2023-04-01T04:15:15.848Z,1.30
2023-04-01T04:17:43.629Z,1.17
2023-04-01T04:20:12.796Z,2.40
2023-04-01T04:22:40.234Z,1.10
2023-04-01T04:25:10.468Z,0.98
2023-04-01T04:27:40.511Z,1.13
2023-04-01T04:30:11.413Z,1.20
2023-04-01T04:32:39.355Z,1.23
2023-04-01T04:37:36.670Z,1.20
2023-04-01T04:40:06.695Z,1.27
2023-04-01T04:42:34.519Z,0.95
2023-04-01T04:45:08.169Z,1.00
2023-04-01T04:47:42.806Z,0.95
2023-04-01T04:50:12.713Z,1.13
2023-04-01T04:52:42.893Z,1.10
2023-04-01T04:55:13.179Z,1.15
2023-04-01T04:57:43.496Z,1.38
2023-04-01T05:00:14.947Z,1.35
2023-04-01T05:02:58.721Z,2.05
2023-04-01T05:05:30.709Z,1.20
2023-04-01T05:08:01.688Z,1.70
2023-04-01T05:10:29.271Z,1.50
2023-04-01T05:12:56.897Z,1.35
2023-04-01T05:17:53.221Z,1.13
2023-04-01T05:20:20.965Z,1.38
2023-04-01T05:22:48.537Z,1.17
2023-04-01T05:25:17.769Z,1.45
2023-04-01T05:27:45.403Z,2.28
2023-04-01T05:32:59.335Z,1.08
2023-04-01T05:35:29.340Z,1.30
2023-04-01T05:37:59.956Z,1.27
2023-04-01T05:40:31.666Z,1.83
2023-04-01T05:42:59.242Z,1.17
2023-04-01T05:45:29.043Z,1.30
2023-04-01T05:48:30.775Z,1.02
2023-04-01T05:53:36.638Z,1.10
2023-04-01T05:56:05.843Z,2.42
2023-04-01T05:58:38.408Z,1.10
2023-04-01T06:01:12.584Z,1.00
2023-04-01T06:03:41.866Z,1.33
2023-04-01T06:06:12.957Z,1.50
2023-04-01T06:08:40.352Z,1.40
2023-04-01T06:11:17.878Z,1.30
2023-04-01T06:13:55.702Z,1.55
2023-04-01T06:18:58.695Z,1.13
2023-04-01T06:21:37.187Z,1.95
2023-04-01T06:24:14.121Z,1.30
2023-04-01T06:26:50.180Z,1.58
2023-04-01T06:29:29.744Z,1.40
2023-04-01T06:32:05.302Z,1.70
2023-04-01T06:34:42.572Z,1.80
2023-04-01T06:37:18.698Z,1.33
2023-04-01T06:39:56.031Z,1.65
2023-04-01T06:42:35.944Z,1.65
2023-04-01T06:45:16.249Z,1.65
2023-04-01T06:48:11.809Z,2.03
2023-04-01T06:51:00.701Z,2.08
2023-04-01T06:53:56.367Z,2.38
2023-04-01T06:57:06.550Z,2.10
2023-04-01T06:59:36.982Z,1.45
2023-04-01T07:02:08.668Z,1.52
2023-04-01T07:04:37.598Z,1.67
2023-04-01T07:07:10.898Z,1.23
2023-04-01T07:09:53.040Z,1.60
2023-04-01T07:12:40.154Z,1.80
2023-04-01T07:15:30.618Z,1.80
2023-04-01T07:18:06.242Z,1.67
2023-04-01T07:20:38.720Z,1.45
2023-04-01T07:23:12.927Z,1.60
2023-04-01T07:26:01.960Z,1.65
2023-04-01T07:28:35.793Z,1.55
2023-04-01T07:31:42.540Z,1.75
2023-04-01T07:34:12.334Z,1.52
2023-04-01T07:36:43.939Z,1.42
2023-04-01T07:39:17.930Z,1.80
2023-04-01T07:42:03.907Z,2.40
2023-04-01T07:44:38.010Z,2.35
2023-04-01T07:47:13.541Z,2.30
2023-04-01T07:49:51.757Z,1.98
2023-04-01T07:52:24.435Z,2.20
2023-04-01T07:55:00.615Z,2.17
2023-04-01T07:57:32.388Z,1.80
2023-04-01T08:00:02.602Z,1.98
2023-04-01T08:02:52.637Z,2.00
2023-04-01T08:05:24.144Z,2.38
2023-04-01T08:07:57.029Z,2.40
2023-04-01T08:10:52.655Z,2.17
2023-04-01T08:13:46.706Z,2.65
2023-04-01T08:16:40.189Z,2.95
2023-04-01T08:19:15.542Z,2.42
2023-04-01T08:21:45.025Z,2.50
2023-04-01T08:24:15.970Z,2.72
2023-04-01T08:26:46.330Z,2.80
2023-04-01T08:29:16.359Z,2.58
2023-04-01T08:31:50.091Z,2.45
2023-04-01T08:34:23.755Z,2.50
2023-04-01T08:36:54.556Z,2.72
2023-04-01T08:39:27.614Z,2.65
2023-04-01T08:42:22.878Z,2.40
2023-04-01T08:45:22.530Z,3.03
2023-04-01T08:48:21.608Z,2.83
2023-04-01T08:51:08.738Z,2.83
2023-04-01T08:53:45.779Z,3.00
2023-04-01T08:56:20.362Z,2.95
2023-04-01T08:58:56.930Z,3.60
2023-04-01T09:01:39.867Z,3.45
2023-04-01T09:04:19.956Z,3.22
2023-04-01T09:06:53.835Z,3.25
2023-04-01T09:09:39.730Z,4.38
2023-04-01T09:12:34.783Z,5.32
2023-04-01T09:15:17.991Z,4.13
2023-04-01T09:18:07.217Z,4.20
2023-04-01T09:20:42.002Z,5.05
2023-04-01T09:23:19.783Z,4.15
2023-04-01T09:28:20.371Z,5.00
2023-04-01T09:31:12.429Z,4.72
2023-04-01T09:34:11.053Z,5.45
2023-04-01T09:37:04.566Z,5.57
2023-04-01T09:39:38.581Z,5.95
2023-04-01T09:42:09.968Z,5.65
2023-04-01T09:44:47.729Z,4.80
2023-04-01T09:47:23.309Z,6.03
2023-04-01T09:49:57.846Z,6.38
2023-04-01T09:52:28.663Z,6.10
2023-04-01T09:55:17.869Z,6.13
2023-04-01T09:57:57.185Z,6.75
2023-04-01T10:00:58.598Z,6.68
2023-04-01T10:03:38.793Z,6.68
2023-04-01T10:06:30.117Z,7.07
2023-04-01T10:09:09.578Z,7.63
2023-04-01T10:11:56.205Z,7.70
2023-04-01T10:14:43.094Z,7.97
2023-04-01T10:17:25.852Z,7.37
2023-04-01T10:20:12.121Z,7.10
2023-04-01T10:22:58.015Z,7.15
2023-04-01T10:25:39.349Z,8.55
2023-04-01T10:28:32.762Z,8.85
2023-04-01T10:31:35.785Z,7.50
2023-04-01T10:34:14.346Z,7.30
2023-04-01T10:37:02.981Z,8.20
2023-04-01T10:39:39.574Z,8.27
2023-04-01T10:42:50.924Z,7.50
2023-04-01T10:46:06.057Z,8.05
2023-04-01T10:49:00.343Z,7.13
2023-04-01T10:51:43.001Z,7.93
2023-04-01T10:54:19.951Z,6.75
2023-04-01T10:56:57.968Z,6.15
2023-04-01T10:59:45.574Z,6.50
2023-04-01T11:03:05.983Z,7.18
2023-04-01T11:06:01.418Z,7.40
2023-04-01T11:08:56.773Z,7.07
2023-04-01T11:11:45.812Z,6.75
2023-04-01T11:14:33.957Z,6.68
2023-04-01T11:17:11.433Z,6.00
2023-04-01T11:20:01.536Z,5.53
2023-04-01T11:22:37.933Z,5.70
2023-04-01T11:25:23.518Z,6.35
2023-04-01T11:28:26.429Z,6.45
2023-04-01T11:31:08.890Z,5.90
2023-04-01T11:33:38.096Z,6.80
2023-04-01T11:36:23.387Z,5.88
2023-04-01T11:38:59.470Z,6.07
2023-04-01T11:41:50.270Z,6.07
2023-04-01T11:44:53.261Z,6.20
2023-04-01T11:47:42.627Z,6.93
2023-04-01T11:50:17.752Z,7.45
2023-04-01T11:53:12.790Z,7.82
2023-04-01T11:55:47.739Z,8.90
2023-04-01T11:58:37.930Z,10.55
2023-04-01T12:01:15.942Z,10.43
2023-04-01T12:03:48.750Z,10.73
2023-04-01T12:06:23.406Z,11.10
2023-04-01T12:08:55.568Z,12.73
2023-04-01T12:11:26.103Z,11.90
2023-04-01T12:13:57.982Z,13.00
2023-04-01T12:16:33.025Z,11.82
2023-04-01T12:19:03.868Z,10.77
2023-04-01T12:21:35.300Z,10.07
2023-04-01T12:24:12.636Z,8.30
2023-04-01T12:26:50.495Z,7.97
2023-04-01T12:29:28.286Z,7.85
2023-04-01T12:32:04.420Z,8.40
2023-04-01T12:34:40.276Z,7.50
2023-04-01T12:37:12.500Z,7.75
2023-04-01T12:39:51.919Z,6.85
2023-04-01T12:42:25.272Z,7.15
2023-04-01T12:45:14.102Z,7.72
2023-04-01T12:47:55.705Z,6.90
2023-04-01T12:50:28.267Z,8.38
2023-04-01T12:53:13.093Z,8.73
2023-04-01T12:55:44.191Z,8.65
2023-04-01T12:58:27.809Z,9.90
2023-04-01T13:01:01.268Z,10.38
2023-04-01T13:04:01.961Z,10.50
2023-04-01T13:06:48.913Z,12.10
2023-04-01T13:09:23.979Z,12.45
2023-04-01T13:11:58.551Z,10.70
2023-04-01T13:14:35.279Z,11.48
2023-04-01T13:17:09.234Z,12.32
2023-04-01T13:19:39.287Z,10.82
2023-04-01T13:22:10.047Z,11.25
2023-04-01T13:24:42.961Z,10.80
2023-04-01T13:27:14.123Z,9.18
2023-04-01T13:29:43.138Z,8.48
2023-04-01T13:32:20.081Z,8.60
2023-04-01T13:35:01.630Z,8.10
2023-04-01T13:37:43.279Z,7.82
2023-04-01T13:40:23.325Z,7.43
2023-04-01T13:42:53.078Z,7.45
2023-04-01T13:45:23.235Z,7.20
2023-04-01T13:48:01.604Z,6.47
2023-04-01T13:50:36.370Z,6.47
2023-04-01T13:53:13.154Z,6.60
2023-04-01T13:55:51.276Z,6.60
2023-04-01T13:58:30.148Z,8.38
2023-04-01T14:01:03.190Z,6.80
2023-04-01T14:03:35.577Z,6.82
2023-04-01T14:06:17.046Z,7.32
2023-04-01T14:08:56.918Z,7.28
2023-04-01T14:11:31.016Z,7.75
2023-04-01T14:14:02.251Z,9.07
2023-04-01T14:16:49.521Z,5.85
2023-04-01T14:19:26.375Z,6.13
2023-04-01T14:22:00.620Z,4.93
2023-04-01T14:24:35.378Z,4.97
2023-04-01T14:27:29.810Z,5.75
2023-04-01T14:30:07.358Z,5.97
2023-04-01T14:32:41.895Z,6.93
2023-04-01T14:35:23.852Z,8.35
2023-04-01T14:38:00.832Z,7.93
2023-04-01T14:40:29.694Z,9.23
2023-04-01T14:43:16.597Z,9.35
2023-04-01T14:45:55.044Z,8.88
2023-04-01T14:48:31.393Z,9.93
2023-04-01T14:51:07.402Z,11.27
2023-04-01T14:53:39.565Z,11.40
2023-04-01T14:56:07.217Z,12.02
2023-04-01T14:58:43.397Z,12.38
2023-04-01T15:01:19.535Z,11.77
2023-04-01T15:03:55.422Z,10.25
2023-04-01T15:06:47.849Z,10.70
2023-04-01T15:09:20.615Z,9.73
2023-04-01T15:11:57.460Z,12.10
2023-04-01T15:14:39.222Z,9.80
2023-04-01T15:17:24.434Z,11.18
2023-04-01T15:20:02.959Z,10.02
2023-04-01T15:22:45.054Z,10.82
2023-04-01T15:25:22.285Z,9.88
2023-04-01T15:27:53.984Z,10.80
2023-04-01T15:30:29.224Z,9.65
2023-04-01T15:33:04.482Z,11.15
2023-04-01T15:35:36.979Z,10.07
2023-04-01T15:38:09.176Z,10.32
2023-04-01T15:40:43.332Z,11.48
2023-04-01T15:43:22.823Z,10.68
2023-04-01T15:45:53.593Z,11.80
2023-04-01T15:48:30.025Z,12.00
2023-04-01T15:51:03.720Z,13.07
2023-04-01T15:53:39.421Z,13.82
2023-04-01T15:56:15.820Z,14.07
2023-04-01T15:58:49.170Z,12.65
2023-04-01T16:01:20.014Z,13.27
2023-04-01T16:03:53.321Z,12.13
2023-04-01T16:06:35.091Z,11.38
2023-04-01T16:09:11.745Z,13.07
2023-04-01T16:11:44.291Z,13.00
2023-04-01T16:14:16.320Z,14.45
2023-04-01T16:16:49.953Z,14.60
2023-04-01T16:19:29.293Z,15.15
2023-04-01T16:22:01.838Z,14.50
2023-04-01T16:24:35.412Z,16.50
2023-04-01T16:27:12.774Z,16.80
2023-04-01T16:29:42.868Z,16.80
2023-04-01T16:32:25.411Z,20.15
2023-04-01T16:35:00.390Z,19.17
2023-04-01T16:37:33.592Z,18.65
2023-04-01T16:40:11.306Z,21.35
2023-04-01T16:42:42.312Z,19.27
2023-04-01T16:45:18.946Z,18.77
2023-04-01T16:47:49.777Z,18.92
2023-04-01T16:50:24.393Z,13.48
2023-04-01T16:53:05.457Z,11.88
2023-04-01T16:55:37.075Z,13.18
2023-04-01T16:58:04.535Z,12.75
2023-04-01T17:00:39.107Z,12.20
2023-04-01T17:03:15.335Z,13.05
2023-04-01T17:05:59.722Z,12.80
2023-04-01T17:08:34.841Z,15.93
2023-04-01T17:11:06.123Z,14.30
2023-04-01T17:13:41.892Z,15.35
2023-04-01T17:16:19.393Z,12.05
2023-04-01T17:21:19.992Z,12.13
2023-04-01T17:23:52.843Z,12.13
2023-04-01T17:26:28.494Z,13.52
2023-04-01T17:28:59.300Z,13.70
2023-04-01T17:31:38.973Z,12.38
2023-04-01T17:34:16.424Z,12.75
2023-04-01T17:36:54.776Z,14.57
2023-04-01T17:39:27.969Z,13.90
2023-04-01T17:41:57.268Z,14.55
2023-04-01T17:44:32.234Z,14.35
2023-04-01T17:47:12.438Z,13.52
2023-04-01T17:49:47.115Z,14.45
2023-04-01T17:52:19.387Z,14.95
2023-04-01T17:54:49.977Z,15.60
2023-04-01T17:57:30.518Z,16.30
2023-04-01T18:00:02.389Z,15.80
2023-04-01T18:02:45.456Z,17.75
2023-04-01T18:05:28.514Z,17.80
2023-04-01T18:08:08.802Z,18.02
2023-04-01T18:10:43.841Z,18.40
2023-04-01T18:13:19.572Z,19.25
2023-04-01T18:15:51.813Z,19.70
2023-04-01T18:18:34.277Z,19.65
2023-04-01T18:21:10.259Z,20.85
2023-04-01T18:23:46.661Z,18.10
2023-04-01T18:26:22.165Z,18.83
2023-04-01T18:28:52.190Z,19.17
2023-04-01T18:31:21.218Z,20.67
2023-04-01T18:33:52.527Z,19.52
2023-04-01T18:36:27.265Z,20.60
2023-04-01T18:38:57.451Z,21.77
2023-04-01T18:41:30.671Z,22.27
2023-04-01T18:44:03.960Z,25.35
2023-04-01T18:46:35.340Z,28.77
2023-04-01T18:49:18.563Z,29.65
2023-04-01T18:51:48.484Z,11.82
2023-04-01T18:54:20.782Z,17.65
2023-04-01T18:56:48.240Z,16.02
2023-04-01T18:59:19.011Z,14.10
2023-04-01T19:01:55.080Z,9.88
2023-04-01T19:04:29.791Z,13.00
2023-04-01T19:06:58.299Z,8.93
2023-04-01T19:09:32.043Z,7.25
2023-04-01T19:12:14.800Z,6.05
2023-04-01T19:14:53.016Z,5.45
2023-04-01T19:17:29.182Z,6.25
2023-04-01T19:20:02.179Z,4.82
2023-04-01T19:22:39.789Z,4.78
2023-04-01T19:27:46.005Z,7.88
2023-04-01T19:30:21.371Z,6.18
2023-04-01T19:32:55.695Z,6.97
2023-04-01T19:35:28.199Z,4.45
2023-04-01T19:37:59.236Z,6.25
2023-04-01T19:40:37.445Z,6.82
2023-04-01T19:43:11.964Z,6.10
2023-04-01T19:45:45.004Z,5.50
2023-04-01T19:48:29.880Z,5.60
2023-04-01T19:51:00.930Z,5.32
2023-04-01T19:53:31.748Z,4.72
2023-04-01T19:56:03.153Z,5.88
2023-04-01T19:58:38.992Z,5.35
2023-04-01T20:01:08.618Z,5.97
2023-04-01T20:03:40.417Z,5.13
2023-04-01T20:06:17.679Z,5.60
2023-04-01T20:08:50.929Z,6.25
2023-04-01T20:11:32.734Z,6.20
2023-04-01T20:14:07.316Z,4.82
2023-04-01T20:16:42.066Z,6.45
2023-04-01T20:19:11.823Z,6.65
2023-04-01T20:21:43.156Z,6.68
2023-04-01T20:24:18.572Z,5.75
2023-04-01T20:26:48.492Z,6.78
2023-04-01T20:29:45.802Z,6.88
2023-04-01T20:32:21.147Z,6.82
2023-04-01T20:34:59.572Z,7.15
2023-04-01T20:37:37.869Z,7.40
2023-04-01T20:40:20.033Z,8.68
2023-04-01T20:42:53.229Z,9.00
2023-04-01T20:45:29.842Z,5.38
2023-04-01T20:48:13.177Z,8.32
2023-04-01T20:50:43.289Z,7.40
2023-04-01T20:53:14.050Z,7.90
2023-04-01T20:55:58.206Z,8.60
2023-04-01T20:58:30.888Z,8.07
2023-04-01T21:01:06.903Z,7.28
2023-04-01T21:03:40.865Z,6.90
2023-04-01T21:06:24.893Z,7.18
2023-04-01T21:09:00.051Z,7.05
2023-04-01T21:11:32.367Z,7.20
2023-04-01T21:14:09.758Z,6.47
2023-04-01T21:16:42.465Z,7.63
2023-04-01T21:19:18.012Z,6.60
2023-04-01T21:21:52.962Z,7.00
2023-04-01T21:24:36.872Z,6.13
2023-04-01T21:27:09.599Z,7.00
2023-04-01T21:29:50.903Z,6.50
2023-04-01T21:32:43.953Z,5.65
2023-04-01T21:35:23.672Z,7.95
2023-04-01T21:37:59.846Z,7.47
2023-04-01T21:40:49.019Z,7.57
2023-04-01T21:43:26.730Z,7.90
2023-04-01T21:48:40.794Z,9.52
2023-04-01T21:51:30.149Z,10.93
2023-04-01T21:54:09.716Z,9.18
2023-04-01T21:57:05.749Z,10.13
2023-04-01T21:59:50.646Z,9.63
2023-04-01T22:02:27.100Z,9.18
2023-04-01T22:04:59.716Z,9.63
2023-04-01T22:07:31.580Z,9.00
2023-04-01T22:10:06.799Z,10.32
2023-04-01T22:12:43.648Z,10.75
2023-04-01T22:15:23.132Z,11.38
2023-04-01T22:17:55.911Z,11.37
2023-04-01T22:20:27.035Z,12.02
2023-04-01T22:22:59.685Z,12.73
2023-04-01T22:25:32.955Z,15.55
2023-04-01T22:28:03.051Z,13.90
2023-04-01T22:30:33.994Z,14.50
2023-04-01T22:33:05.097Z,15.55
2023-04-01T22:35:38.762Z,12.60
2023-04-01T22:38:11.112Z,10.35
2023-04-01T22:40:44.129Z,9.95
2023-04-01T22:43:13.614Z,10.43
2023-04-01T22:45:54.443Z,10.68
2023-04-01T22:48:34.097Z,9.45
2023-04-01T22:51:05.372Z,11.63
2023-04-01T22:53:38.387Z,10.88
2023-04-01T22:56:09.700Z,11.15
2023-04-01T22:58:39.858Z,9.98
2023-04-01T23:01:08.754Z,11.32
2023-04-01T23:03:42.772Z,11.75
2023-04-01T23:06:21.943Z,12.88
2023-04-01T23:08:59.355Z,12.13
2023-04-01T23:11:32.468Z,12.77
2023-04-01T23:14:06.134Z,12.82
2023-04-01T23:16:51.365Z,12.80
2023-04-01T23:19:21.661Z,12.50
2023-04-01T23:21:51.565Z,13.77
2023-04-01T23:24:22.442Z,12.18
2023-04-01T23:26:56.880Z,12.82
2023-04-01T23:29:24.560Z,11.40
2023-04-01T23:31:58.700Z,12.05
2023-04-01T23:34:30.400Z,10.77
2023-04-01T23:36:58.931Z,10.63
2023-04-01T23:39:29.039Z,10.88
2023-04-01T23:41:58.804Z,10.50
2023-04-01T23:44:27.546Z,10.48
2023-04-01T23:46:58.127Z,11.88
2023-04-01T23:49:29.507Z,11.52
2023-04-01T23:52:00.974Z,11.88
2023-04-01T23:54:33.414Z,11.30
2023-04-01T23:57:06.620Z,11.25
2023-04-01T23:59:35.247Z,10.50
